createdAt,value
2017-08-21T00:00:32.307Z,14.40
2017-08-21T00:02:59.815Z,14.30
2017-08-21T00:05:27.333Z,14.30
2017-08-21T00:16:54.373Z,14.10
2017-08-21T00:19:21.854Z,14.00
2017-08-21T00:21:49.339Z,13.90
2017-08-21T00:24:16.826Z,13.90
2017-08-21T00:26:44.314Z,13.90
2017-08-21T00:29:11.782Z,13.80
2017-08-21T00:31:39.268Z,13.80
2017-08-21T00:34:07.519Z,13.80
2017-08-21T00:36:35.015Z,13.80
2017-08-21T00:39:03.290Z,13.80
2017-08-21T00:41:31.536Z,13.80
2017-08-21T00:43:59.032Z,13.80
2017-08-21T00:46:26.508Z,13.90
2017-08-21T00:48:54.003Z,13.90
2017-08-21T00:51:21.479Z,13.80
2017-08-21T00:53:48.967Z,13.90
2017-08-21T00:56:16.484Z,13.90
2017-08-21T00:58:43.972Z,13.90
2017-08-21T01:01:12.202Z,13.90
2017-08-21T01:03:39.699Z,13.90
2017-08-21T01:06:07.175Z,13.90
2017-08-21T01:08:34.719Z,14.00
2017-08-21T01:11:02.965Z,13.80
2017-08-21T01:13:30.458Z,13.80
2017-08-21T01:15:57.978Z,13.80
2017-08-21T01:18:25.461Z,13.80
2017-08-21T01:20:53.711Z,13.80
2017-08-21T01:23:21.182Z,13.80
2017-08-21T01:25:48.670Z,13.80
2017-08-21T01:28:16.160Z,13.80
2017-08-21T01:30:43.642Z,13.80
2017-08-21T01:33:11.161Z,13.80
2017-08-21T01:35:38.651Z,13.80
2017-08-21T01:38:06.128Z,13.80
2017-08-21T01:40:33.614Z,13.80
2017-08-21T01:43:01.100Z,13.70
2017-08-21T01:45:28.601Z,13.80
2017-08-21T01:47:56.835Z,13.70
2017-08-21T01:50:24.331Z,13.70
2017-08-21T01:52:51.811Z,13.70
2017-08-21T01:55:19.327Z,13.60
2017-08-21T01:57:46.846Z,13.60
2017-08-21T02:00:14.310Z,13.50
2017-08-21T02:02:41.804Z,13.60
2017-08-21T02:05:09.282Z,13.60
2017-08-21T02:07:37.542Z,13.70
2017-08-21T02:10:05.022Z,13.70
2017-08-21T02:12:32.516Z,13.80
2017-08-21T02:15:00.004Z,13.80
2017-08-21T02:17:27.508Z,13.90
2017-08-21T02:19:54.987Z,14.00
2017-08-21T02:22:22.454Z,14.00
2017-08-21T02:24:49.944Z,14.00
2017-08-21T02:27:17.439Z,14.10
2017-08-21T02:29:44.927Z,14.10
2017-08-21T02:32:12.412Z,14.10
2017-08-21T02:34:39.896Z,14.10
2017-08-21T02:37:07.363Z,14.10
2017-08-21T02:39:34.846Z,14.10
2017-08-21T02:42:02.326Z,14.20
2017-08-21T02:44:29.827Z,14.20
2017-08-21T02:46:58.070Z,14.20
2017-08-21T02:49:25.555Z,14.20
2017-08-21T02:51:53.790Z,14.20
2017-08-21T02:54:21.284Z,14.20
2017-08-21T02:56:48.758Z,14.20
2017-08-21T02:59:16.279Z,14.20
2017-08-21T03:01:43.763Z,14.20
2017-08-21T03:04:12.009Z,14.20
2017-08-21T03:06:39.504Z,14.20
2017-08-21T03:09:06.991Z,14.20
2017-08-21T03:11:34.475Z,14.20
2017-08-21T03:14:01.946Z,14.10
2017-08-21T03:16:29.440Z,14.10
2017-08-21T03:18:56.931Z,14.00
2017-08-21T03:21:24.436Z,14.00
2017-08-21T03:23:51.934Z,14.00
2017-08-21T03:26:19.431Z,14.00
2017-08-21T03:28:46.906Z,14.10
2017-08-21T03:31:14.394Z,14.10
2017-08-21T03:33:41.931Z,14.00
2017-08-21T03:36:09.683Z,14.10
2017-08-21T03:38:37.172Z,14.10
2017-08-21T03:41:04.650Z,14.00
2017-08-21T03:43:32.143Z,14.00
2017-08-21T03:45:59.629Z,14.00
2017-08-21T03:48:27.123Z,14.10
2017-08-21T03:50:54.610Z,14.10
2017-08-21T03:53:22.095Z,14.10
2017-08-21T03:55:49.575Z,14.20
2017-08-21T03:58:17.103Z,14.10
2017-08-21T04:00:44.575Z,14.10
2017-08-21T04:03:12.048Z,14.10
2017-08-21T04:05:39.551Z,14.10
2017-08-21T04:08:07.045Z,14.10
2017-08-21T04:10:34.533Z,14.10
2017-08-21T04:13:02.031Z,14.10
2017-08-21T04:15:29.513Z,14.10
2017-08-21T04:17:56.994Z,14.00
2017-08-21T04:20:24.498Z,14.00
2017-08-21T04:22:51.978Z,14.00
2017-08-21T04:25:19.504Z,14.00
2017-08-21T04:27:47.003Z,14.00
2017-08-21T04:30:14.513Z,14.00
2017-08-21T04:32:42.014Z,14.00
2017-08-21T04:35:09.521Z,14.00
2017-08-21T04:37:37.014Z,14.10
2017-08-21T04:40:04.491Z,14.10
2017-08-21T04:42:31.979Z,14.20
2017-08-21T04:44:59.499Z,14.20
2017-08-21T04:47:26.982Z,14.20
2017-08-21T04:49:54.463Z,14.20
2017-08-21T04:52:21.979Z,14.30
2017-08-21T04:54:49.491Z,14.40
2017-08-21T04:57:16.987Z,14.40
2017-08-21T04:59:44.454Z,14.50
2017-08-21T05:02:11.959Z,14.50
2017-08-21T05:04:39.442Z,14.60
2017-08-21T05:07:06.930Z,14.60
2017-08-21T05:09:34.427Z,14.60
2017-08-21T05:12:01.934Z,14.50
2017-08-21T05:14:29.446Z,14.50
2017-08-21T05:16:56.960Z,14.50
2017-08-21T05:19:24.503Z,14.50
2017-08-21T05:21:52.102Z,14.50
2017-08-21T05:24:19.619Z,14.50
2017-08-21T05:26:47.107Z,14.60
2017-08-21T05:29:14.610Z,14.60
2017-08-21T05:31:42.104Z,14.70
2017-08-21T05:34:09.598Z,14.70
2017-08-21T05:36:37.082Z,14.70
2017-08-21T05:39:04.592Z,14.60
2017-08-21T05:41:32.111Z,14.60
2017-08-21T05:43:59.606Z,14.60
2017-08-21T05:46:27.074Z,14.60
2017-08-21T05:48:54.678Z,14.60
2017-08-21T05:51:22.164Z,14.70
2017-08-21T05:53:49.671Z,14.60
2017-08-21T05:56:17.191Z,14.60
2017-08-21T05:58:44.951Z,14.60
2017-08-21T06:01:12.415Z,14.60
2017-08-21T06:03:39.923Z,14.70
2017-08-21T06:06:07.405Z,14.80
2017-08-21T06:08:34.901Z,14.80
2017-08-21T06:11:02.456Z,14.80
2017-08-21T06:13:29.954Z,14.90
2017-08-21T06:15:57.432Z,15.00
2017-08-21T06:18:24.918Z,15.10
2017-08-21T06:20:52.419Z,15.20
2017-08-21T06:23:19.904Z,15.20
2017-08-21T06:25:47.388Z,15.20
2017-08-21T06:28:14.866Z,15.20
2017-08-21T06:30:42.407Z,15.20
2017-08-21T06:33:09.876Z,15.20
2017-08-21T06:35:37.423Z,15.20
2017-08-21T06:38:04.919Z,15.20
2017-08-21T06:40:32.451Z,15.30
2017-08-21T06:42:59.952Z,15.30
2017-08-21T06:45:27.463Z,15.40
2017-08-21T06:47:54.948Z,15.60
2017-08-21T06:50:22.438Z,15.70
2017-08-21T06:52:49.919Z,15.70
2017-08-21T06:55:17.394Z,15.90
2017-08-21T06:57:44.907Z,15.90
2017-08-21T07:00:12.397Z,16.10
2017-08-21T07:02:39.914Z,16.20
2017-08-21T07:05:07.406Z,16.30
2017-08-21T07:07:52.835Z,16.40
2017-08-21T07:10:20.335Z,16.40
2017-08-21T07:12:47.833Z,16.40
2017-08-21T07:15:15.356Z,16.50
2017-08-21T07:17:42.872Z,16.60
2017-08-21T07:20:10.350Z,16.80
2017-08-21T07:22:37.843Z,16.70
2017-08-21T07:25:05.333Z,16.70
2017-08-21T07:27:32.826Z,16.70
2017-08-21T07:30:00.328Z,16.70
2017-08-21T07:32:27.819Z,16.80
2017-08-21T07:34:55.325Z,16.80
2017-08-21T07:37:22.846Z,16.80
2017-08-21T07:39:50.406Z,16.80
2017-08-21T07:42:18.564Z,16.70
2017-08-21T07:44:46.066Z,16.70
2017-08-21T07:47:13.579Z,16.70
2017-08-21T07:49:41.078Z,16.70
2017-08-21T07:52:08.553Z,16.70
2017-08-21T07:54:36.087Z,16.70
2017-08-21T07:57:03.570Z,16.90
2017-08-21T07:59:31.095Z,17.10
2017-08-21T08:01:58.570Z,17.30
2017-08-21T08:04:26.140Z,17.40
2017-08-21T08:06:53.683Z,17.60
2017-08-21T08:09:21.270Z,17.60
2017-08-21T08:11:48.821Z,17.70
2017-08-21T08:14:16.348Z,17.70
2017-08-21T08:16:43.847Z,17.60
2017-08-21T08:19:11.487Z,17.50
2017-08-21T08:21:38.989Z,17.50
2017-08-21T08:24:06.520Z,17.50
2017-08-21T08:26:34.038Z,17.40
2017-08-21T08:29:01.752Z,17.50
2017-08-21T08:31:29.344Z,17.50
2017-08-21T08:33:56.868Z,17.50
2017-08-21T08:36:24.375Z,17.50
2017-08-21T08:38:51.945Z,17.60
2017-08-21T08:41:19.545Z,17.70
2017-08-21T08:43:47.203Z,17.70
2017-08-21T08:46:14.791Z,17.80
2017-08-21T08:48:42.376Z,17.90
2017-08-21T08:51:09.923Z,18.10
2017-08-21T08:53:37.415Z,18.00
2017-08-21T08:56:04.930Z,17.90
2017-08-21T08:58:32.496Z,17.90
2017-08-21T09:01:00.082Z,17.90
2017-08-21T09:03:27.771Z,17.90
2017-08-21T09:05:55.643Z,18.00
2017-08-21T09:08:23.208Z,18.00
2017-08-21T09:10:50.742Z,18.00
2017-08-21T09:13:18.372Z,18.20
2017-08-21T09:15:46.120Z,18.30
2017-08-21T09:18:13.679Z,18.20
2017-08-21T09:20:41.187Z,18.20
2017-08-21T09:23:08.699Z,18.00
2017-08-21T09:25:36.208Z,17.90
2017-08-21T09:28:03.748Z,17.80
2017-08-21T09:30:31.472Z,17.90
2017-08-21T09:32:58.965Z,17.90
2017-08-21T09:35:26.471Z,17.90
2017-08-21T09:37:54.037Z,17.90
2017-08-21T09:40:21.560Z,17.80
2017-08-21T09:42:49.123Z,18.00
2017-08-21T09:45:16.679Z,18.10
2017-08-21T09:47:44.195Z,18.10
2017-08-21T09:50:11.703Z,18.20
2017-08-21T09:52:39.220Z,18.30
2017-08-21T09:55:06.734Z,18.10
2017-08-21T09:57:34.307Z,18.10
2017-08-21T10:00:01.853Z,18.10
2017-08-21T10:02:29.379Z,18.10
2017-08-21T10:04:56.930Z,18.20
2017-08-21T10:07:24.479Z,18.20
2017-08-21T10:09:51.971Z,18.10
2017-08-21T10:12:19.496Z,18.10
2017-08-21T10:14:47.007Z,18.00
2017-08-21T10:17:14.543Z,18.00
2017-08-21T10:19:42.059Z,18.00
2017-08-21T10:22:09.563Z,18.20
2017-08-21T10:24:37.072Z,18.50
2017-08-21T10:27:04.619Z,18.70
2017-08-21T10:29:32.124Z,19.00
2017-08-21T10:31:59.651Z,19.20
2017-08-21T10:34:27.142Z,19.30
2017-08-21T10:36:54.681Z,19.50
2017-08-21T10:39:22.188Z,19.60
2017-08-21T10:41:49.686Z,19.70
2017-08-21T10:44:17.390Z,19.50
2017-08-21T10:46:44.872Z,19.30
2017-08-21T10:49:12.406Z,19.10
2017-08-21T10:51:39.940Z,18.80
2017-08-21T10:54:07.430Z,18.70
2017-08-21T10:56:34.913Z,18.60
2017-08-21T10:59:02.448Z,18.60
2017-08-21T11:01:29.930Z,18.70
2017-08-21T11:03:57.501Z,18.80
2017-08-21T11:06:25.011Z,18.70
2017-08-21T11:08:52.518Z,18.70
2017-08-21T11:11:20.044Z,18.70
2017-08-21T11:13:48.371Z,18.80
2017-08-21T11:16:15.870Z,19.10
2017-08-21T11:18:44.145Z,19.30
2017-08-21T11:21:11.651Z,19.40
2017-08-21T11:23:40.092Z,19.40
2017-08-21T11:26:07.589Z,19.60
2017-08-21T11:28:35.088Z,19.90
2017-08-21T11:31:02.599Z,20.10
2017-08-21T11:33:30.075Z,20.00
2017-08-21T11:35:57.592Z,19.80
2017-08-21T11:38:25.089Z,19.60
2017-08-21T11:40:52.607Z,19.40
2017-08-21T11:43:20.119Z,19.30
2017-08-21T11:45:47.639Z,19.20
2017-08-21T11:48:15.131Z,19.20
2017-08-21T11:50:42.628Z,19.30
2017-08-21T11:53:10.147Z,19.30
2017-08-21T11:55:37.671Z,19.20
2017-08-21T11:58:05.169Z,19.10
2017-08-21T12:00:32.651Z,19.00
2017-08-21T12:03:00.204Z,18.90
2017-08-21T12:05:27.739Z,19.00
2017-08-21T12:07:55.223Z,18.90
2017-08-21T12:10:22.723Z,18.80
2017-08-21T12:12:50.235Z,18.80
2017-08-21T12:15:17.727Z,18.80
2017-08-21T12:17:45.234Z,18.90
2017-08-21T12:20:12.745Z,19.00
2017-08-21T12:22:40.252Z,19.00
2017-08-21T12:25:07.733Z,19.00
2017-08-21T12:27:35.278Z,19.10
2017-08-21T12:30:02.846Z,19.30
2017-08-21T12:32:30.337Z,19.50
2017-08-21T12:34:57.851Z,19.50
2017-08-21T12:37:25.428Z,19.50
2017-08-21T12:39:52.953Z,19.50
2017-08-21T12:42:20.439Z,19.40
2017-08-21T12:44:47.980Z,19.30
2017-08-21T12:47:15.470Z,19.40
2017-08-21T12:49:43.422Z,19.40
2017-08-21T12:52:10.966Z,19.40
2017-08-21T12:54:38.466Z,19.50
2017-08-21T12:57:05.935Z,19.60
2017-08-21T12:59:33.439Z,19.60
2017-08-21T13:02:00.971Z,19.60
2017-08-21T13:04:28.451Z,19.50
2017-08-21T13:06:55.962Z,19.40
2017-08-21T13:09:23.471Z,19.30
2017-08-21T13:11:50.994Z,19.40
2017-08-21T13:14:18.475Z,19.40
2017-08-21T13:16:45.999Z,19.40
2017-08-21T13:19:13.472Z,19.50
2017-08-21T13:21:40.979Z,19.50
2017-08-21T13:24:08.463Z,19.50
2017-08-21T13:26:35.958Z,19.60
2017-08-21T13:29:03.443Z,19.60
2017-08-21T13:31:30.969Z,19.70
2017-08-21T13:33:58.439Z,19.60
2017-08-21T13:36:25.959Z,19.60
2017-08-21T13:38:53.436Z,19.60
2017-08-21T13:41:20.924Z,19.70
2017-08-21T13:43:48.415Z,19.50
2017-08-21T13:46:15.991Z,19.30
2017-08-21T13:48:43.492Z,19.40
2017-08-21T13:51:11.003Z,19.40
2017-08-21T13:53:38.513Z,19.40
2017-08-21T13:56:06.014Z,19.40
2017-08-21T13:58:33.527Z,19.30
2017-08-21T14:01:01.192Z,19.30
2017-08-21T14:03:28.706Z,19.30
2017-08-21T14:05:56.179Z,19.20
2017-08-21T14:08:23.687Z,19.20
2017-08-21T14:10:51.177Z,19.30
2017-08-21T14:13:18.684Z,19.30
2017-08-21T14:15:46.169Z,19.30
2017-08-21T14:18:13.669Z,19.30
2017-08-21T14:20:41.146Z,19.20
2017-08-21T14:23:08.754Z,19.10
2017-08-21T14:25:36.241Z,19.10
2017-08-21T14:28:03.729Z,19.00
2017-08-21T14:30:31.235Z,19.00
2017-08-21T14:32:58.818Z,19.00
2017-08-21T14:35:26.367Z,19.00
2017-08-21T14:37:53.866Z,19.20
2017-08-21T14:40:21.381Z,19.30
2017-08-21T14:42:48.875Z,19.30
2017-08-21T14:45:16.375Z,19.40
2017-08-21T14:47:43.884Z,19.40
2017-08-21T14:50:11.406Z,19.50
2017-08-21T14:52:38.909Z,19.40
2017-08-21T14:55:06.455Z,19.30
2017-08-21T14:57:33.941Z,19.30
2017-08-21T15:00:01.486Z,19.20
2017-08-21T15:02:29.027Z,19.10
2017-08-21T15:04:56.506Z,19.10
2017-08-21T15:07:24.022Z,19.00
2017-08-21T15:09:51.511Z,19.10
2017-08-21T15:12:19.011Z,19.20
2017-08-21T15:14:46.506Z,19.20
2017-08-21T15:17:13.995Z,19.20
2017-08-21T15:19:41.507Z,19.20
2017-08-21T15:22:09.023Z,19.20
2017-08-21T15:24:36.528Z,19.30
2017-08-21T15:27:04.027Z,19.30
2017-08-21T15:29:31.520Z,19.30
2017-08-21T15:31:59.043Z,19.30
2017-08-21T15:34:26.568Z,19.20
2017-08-21T15:36:54.061Z,19.20
2017-08-21T15:39:21.567Z,19.20
2017-08-21T15:41:49.067Z,19.10
2017-08-21T15:44:16.605Z,19.10
2017-08-21T15:46:44.147Z,19.00
2017-08-21T15:49:11.663Z,19.10
2017-08-21T15:51:39.147Z,19.00
2017-08-21T15:54:06.678Z,19.00
2017-08-21T15:56:34.159Z,18.80
2017-08-21T15:59:01.675Z,18.80
2017-08-21T16:01:29.191Z,18.80
2017-08-21T16:03:56.688Z,18.90
2017-08-21T16:06:24.195Z,19.00
2017-08-21T16:08:51.703Z,19.00
2017-08-21T16:11:19.212Z,19.00
2017-08-21T16:13:46.723Z,18.90
2017-08-21T16:16:14.227Z,18.80
2017-08-21T16:18:41.730Z,18.70
2017-08-21T16:21:09.269Z,18.60
2017-08-21T16:23:36.767Z,18.60
2017-08-21T16:26:04.306Z,18.60
2017-08-21T16:28:31.823Z,18.60
2017-08-21T16:30:59.389Z,18.60
2017-08-21T16:33:26.891Z,18.60
2017-08-21T16:35:54.399Z,18.50
2017-08-21T16:38:21.879Z,18.50
2017-08-21T16:40:49.376Z,18.40
2017-08-21T16:43:16.893Z,18.40
2017-08-21T16:45:44.383Z,18.40
2017-08-21T16:48:11.914Z,18.40
2017-08-21T16:50:39.398Z,18.30
2017-08-21T16:53:07.014Z,18.30
2017-08-21T16:55:34.546Z,18.20
2017-08-21T16:58:02.070Z,18.10
2017-08-21T17:00:29.576Z,18.10
2017-08-21T17:02:57.099Z,18.00
2017-08-21T17:05:24.648Z,18.00
2017-08-21T17:07:52.207Z,18.00
2017-08-21T17:10:19.743Z,17.90
2017-08-21T17:12:47.231Z,17.90
2017-08-21T17:15:14.779Z,17.80
2017-08-21T17:17:42.297Z,17.70
2017-08-21T17:20:09.816Z,17.70
2017-08-21T17:22:37.326Z,17.60
2017-08-21T17:25:04.884Z,17.60
2017-08-21T17:27:32.392Z,17.60
2017-08-21T17:29:59.935Z,17.50
2017-08-21T17:32:27.441Z,17.40
2017-08-21T17:34:54.990Z,17.40
2017-08-21T17:37:22.503Z,17.40
2017-08-21T17:39:50.060Z,17.30
2017-08-21T17:42:17.638Z,17.30
2017-08-21T17:44:45.167Z,17.30
2017-08-21T17:47:12.832Z,17.20
2017-08-21T17:49:40.503Z,17.10
2017-08-21T17:52:08.067Z,17.10
2017-08-21T17:54:35.575Z,17.00
2017-08-21T17:57:03.076Z,17.00
2017-08-21T17:59:30.731Z,16.90
2017-08-21T18:01:58.244Z,16.90
2017-08-21T18:04:25.752Z,16.70
2017-08-21T18:06:53.230Z,16.70
2017-08-21T18:09:20.774Z,16.70
2017-08-21T18:11:48.326Z,16.70
2017-08-21T18:14:15.844Z,16.60
2017-08-21T18:16:43.356Z,16.60
2017-08-21T18:19:10.904Z,16.50
2017-08-21T18:21:38.378Z,16.50
2017-08-21T18:24:05.894Z,16.40
2017-08-21T18:26:33.397Z,16.30
2017-08-21T18:29:00.901Z,16.30
2017-08-21T18:31:28.403Z,16.20
2017-08-21T18:33:55.909Z,16.10
2017-08-21T18:36:23.421Z,16.10
2017-08-21T18:39:28.813Z,16.10
2017-08-21T18:41:56.325Z,16.00
2017-08-21T18:44:23.844Z,16.00
2017-08-21T18:46:51.342Z,15.90
2017-08-21T18:49:18.853Z,15.80
2017-08-21T18:51:46.355Z,15.80
2017-08-21T18:54:13.851Z,15.70
2017-08-21T18:56:41.347Z,15.60
2017-08-21T18:59:08.840Z,15.60
2017-08-21T19:01:36.326Z,15.50
2017-08-21T19:04:04.449Z,15.50
2017-08-21T19:06:31.991Z,15.50
2017-08-21T19:08:59.484Z,15.50
2017-08-21T19:11:27.004Z,15.40
2017-08-21T19:13:54.540Z,15.40
2017-08-21T19:16:22.036Z,15.30
2017-08-21T19:18:49.555Z,15.30
2017-08-21T19:21:17.068Z,15.20
2017-08-21T19:23:44.576Z,15.20
2017-08-21T19:26:12.075Z,15.10
2017-08-21T19:28:39.563Z,15.10
2017-08-21T19:31:07.080Z,15.00
2017-08-21T19:33:34.631Z,15.00
2017-08-21T19:36:02.162Z,15.00
2017-08-21T19:38:29.664Z,14.90
2017-08-21T19:40:57.175Z,14.90
2017-08-21T19:43:24.693Z,14.80
2017-08-21T19:45:52.252Z,14.80
2017-08-21T19:48:19.786Z,14.70
2017-08-21T19:50:47.337Z,14.70
2017-08-21T19:53:14.832Z,14.60
2017-08-21T19:55:42.348Z,14.60
2017-08-21T19:58:09.939Z,14.50
2017-08-21T20:00:37.523Z,14.50
2017-08-21T20:03:05.036Z,14.50
2017-08-21T20:05:32.572Z,14.50
2017-08-21T20:08:01.090Z,14.40
2017-08-21T20:10:28.608Z,14.40
2017-08-21T20:12:56.178Z,14.30
2017-08-21T20:15:23.687Z,14.30
2017-08-21T20:17:51.240Z,14.30
2017-08-21T20:20:18.769Z,14.30
2017-08-21T20:22:46.313Z,14.20
2017-08-21T20:25:13.820Z,14.20
2017-08-21T20:27:41.323Z,14.10
2017-08-21T20:30:08.827Z,14.10
2017-08-21T20:32:36.307Z,14.10
2017-08-21T20:35:03.860Z,14.00
2017-08-21T20:37:31.372Z,14.00
2017-08-21T20:39:58.954Z,14.00
2017-08-21T20:42:26.499Z,13.90
2017-08-21T20:44:54.025Z,13.90
2017-08-21T20:47:21.532Z,13.90
2017-08-21T20:49:49.173Z,13.80
2017-08-21T20:52:16.740Z,13.80
2017-08-21T20:54:44.327Z,13.80
2017-08-21T20:57:11.859Z,13.80
2017-08-21T20:59:39.439Z,13.70
2017-08-21T21:02:07.829Z,13.70
2017-08-21T21:04:35.441Z,13.60
2017-08-21T21:07:02.935Z,13.60
2017-08-21T21:09:30.483Z,13.50
2017-08-21T21:11:58.011Z,13.50
2017-08-21T21:14:25.512Z,13.50
2017-08-21T21:16:53.043Z,13.50
2017-08-21T21:19:20.564Z,13.50
2017-08-21T21:21:48.122Z,13.40
2017-08-21T21:24:15.720Z,13.40
2017-08-21T21:26:43.201Z,13.40
2017-08-21T21:29:10.823Z,13.40
2017-08-21T21:31:38.508Z,13.40
2017-08-21T21:34:06.023Z,13.30
2017-08-21T21:36:33.787Z,13.30
2017-08-21T21:39:01.297Z,13.30
2017-08-21T21:41:28.863Z,13.40
2017-08-21T21:43:56.579Z,13.40
2017-08-21T21:46:24.184Z,13.30
2017-08-21T21:48:51.668Z,13.40
2017-08-21T21:51:19.187Z,13.40
2017-08-21T21:53:47.483Z,13.40
2017-08-21T21:56:15.004Z,13.40
2017-08-21T21:58:43.111Z,13.40
2017-08-21T22:01:10.632Z,13.40
2017-08-21T22:03:38.640Z,13.30
2017-08-21T22:06:06.243Z,13.30
2017-08-21T22:08:33.751Z,13.30
2017-08-21T22:11:01.557Z,13.30
2017-08-21T22:13:29.059Z,13.30
2017-08-21T22:15:56.567Z,13.20
2017-08-21T22:18:24.076Z,13.20
2017-08-21T22:20:51.574Z,13.20
2017-08-21T22:23:19.067Z,13.20
2017-08-21T22:25:46.556Z,13.10
2017-08-21T22:28:14.071Z,13.20
2017-08-21T22:30:41.563Z,13.10
2017-08-21T22:33:09.070Z,13.10
2017-08-21T22:35:36.626Z,13.20
2017-08-21T22:38:04.119Z,13.30
2017-08-21T22:40:31.602Z,13.30
2017-08-21T22:42:59.758Z,13.20
2017-08-21T22:45:27.246Z,13.20
2017-08-21T22:47:54.755Z,13.20
2017-08-21T22:50:22.611Z,13.20
2017-08-21T22:52:50.132Z,13.20
2017-08-21T22:55:17.613Z,13.20
2017-08-21T22:57:45.111Z,13.20
2017-08-21T23:00:12.691Z,13.20
2017-08-21T23:02:44.027Z,13.20
2017-08-21T23:05:11.558Z,13.20
2017-08-21T23:07:39.065Z,13.10
2017-08-21T23:10:06.567Z,13.10
2017-08-21T23:12:34.076Z,13.20
2017-08-21T23:15:01.606Z,13.20
2017-08-21T23:17:29.096Z,13.10
2017-08-21T23:19:56.611Z,13.00
2017-08-21T23:22:24.099Z,13.00
2017-08-21T23:24:51.602Z,12.90
2017-08-21T23:27:19.082Z,12.90
2017-08-21T23:29:46.619Z,12.90
2017-08-21T23:32:14.094Z,12.90
2017-08-21T23:34:41.572Z,12.80
2017-08-21T23:37:09.078Z,12.80
2017-08-21T23:39:36.555Z,12.70
2017-08-21T23:42:04.099Z,12.70
2017-08-21T23:44:31.599Z,12.70
2017-08-21T23:46:59.087Z,12.60
2017-08-21T23:49:26.852Z,12.60
2017-08-21T23:51:54.348Z,12.60
2017-08-21T23:54:21.831Z,12.60
2017-08-21T23:56:49.335Z,12.60
2017-08-21T23:59:16.855Z,12.50
